createdAt,value
2023-02-11T00:02:13.112Z,1.60
2023-02-11T00:04:40.927Z,1.60
2023-02-11T00:07:08.840Z,1.60
2023-02-11T00:09:37.844Z,1.60
2023-02-11T00:12:06.039Z,1.60
2023-02-11T00:14:33.990Z,1.60
2023-02-11T00:17:02.000Z,1.60
2023-02-11T00:19:29.921Z,1.50
2023-02-11T00:21:57.867Z,1.54
2023-02-11T00:24:25.993Z,1.50
2023-02-11T00:26:53.938Z,1.50
2023-02-11T00:29:21.752Z,1.50
2023-02-11T00:31:49.881Z,1.50
2023-02-11T00:34:17.830Z,1.50
2023-02-11T00:36:45.845Z,1.50
2023-02-11T00:39:15.624Z,1.50
2023-02-11T00:41:43.675Z,1.50
2023-02-11T00:44:13.954Z,1.50
2023-02-11T00:46:41.886Z,1.50
2023-02-11T00:49:11.876Z,1.52
2023-02-11T00:51:39.944Z,1.50
2023-02-11T00:54:08.245Z,1.50
2023-02-11T00:56:36.499Z,1.52
2023-02-11T00:59:04.310Z,1.52
2023-02-11T01:01:32.291Z,1.52
2023-02-11T01:04:00.500Z,1.54
2023-02-11T01:06:28.470Z,1.58
2023-02-11T01:08:56.546Z,1.56
2023-02-11T01:11:24.399Z,1.50
2023-02-11T01:13:52.502Z,1.58
2023-02-11T01:16:21.776Z,1.58
2023-02-11T01:18:49.821Z,1.56
2023-02-11T01:21:19.486Z,1.60
2023-02-11T01:23:47.632Z,1.60
2023-02-11T01:26:15.459Z,1.60
2023-02-11T01:28:43.271Z,1.60
2023-02-11T01:31:11.086Z,1.50
2023-02-11T01:33:39.112Z,1.60
2023-02-11T01:36:07.927Z,1.60
2023-02-11T01:38:36.044Z,1.50
2023-02-11T01:41:10.207Z,1.50
2023-02-11T01:43:41.542Z,1.50
2023-02-11T01:46:32.406Z,1.50
2023-02-11T01:49:12.975Z,1.50
2023-02-11T01:51:47.042Z,1.50
2023-02-11T01:54:39.119Z,1.50
2023-02-11T01:57:22.990Z,1.50
2023-02-11T02:00:13.272Z,1.50
2023-02-11T02:03:06.590Z,1.40
2023-02-11T02:06:41.560Z,1.40
2023-02-11T02:09:15.306Z,1.40
2023-02-11T02:11:43.247Z,1.40
2023-02-11T02:14:11.248Z,1.40
2023-02-11T02:16:39.363Z,1.40
2023-02-11T02:19:10.506Z,1.40
2023-02-11T02:22:06.256Z,1.40
2023-02-11T02:25:19.752Z,1.40
2023-02-11T02:28:06.122Z,1.40
2023-02-11T02:31:23.090Z,1.40
2023-02-11T02:34:02.905Z,1.38
2023-02-11T02:36:49.335Z,1.40
2023-02-11T02:39:26.917Z,1.40
2023-02-11T02:41:54.814Z,1.40
2023-02-11T02:44:22.731Z,1.36
2023-02-11T02:46:50.895Z,1.38
2023-02-11T02:49:18.999Z,1.38
2023-02-11T02:51:56.032Z,1.34
2023-02-11T02:55:06.565Z,1.30
2023-02-11T02:57:55.655Z,1.30
2023-02-11T03:00:29.921Z,1.30
2023-02-11T03:03:26.465Z,1.30
2023-02-11T03:06:24.037Z,1.30
2023-02-11T03:09:12.845Z,1.30
2023-02-11T03:11:40.980Z,1.30
2023-02-11T03:14:11.511Z,1.28
2023-02-11T03:16:39.481Z,1.30
2023-02-11T03:19:14.227Z,1.26
2023-02-11T03:21:42.884Z,1.30
2023-02-11T03:24:30.668Z,1.30
2023-02-11T03:27:03.796Z,1.28
2023-02-11T03:29:46.252Z,1.20
2023-02-11T03:32:29.405Z,1.22
2023-02-11T03:35:07.631Z,1.20
2023-02-11T03:37:42.609Z,1.20
2023-02-11T03:40:22.737Z,1.20
2023-02-11T03:42:58.580Z,1.20
2023-02-11T03:45:26.657Z,1.20
2023-02-11T03:48:13.313Z,1.16
2023-02-11T03:50:41.136Z,1.14
2023-02-11T03:53:08.974Z,1.12
2023-02-11T03:55:39.498Z,1.14
2023-02-11T03:58:07.615Z,1.10
2023-02-11T04:00:39.680Z,1.10
2023-02-11T04:03:08.461Z,1.10
2023-02-11T04:05:36.836Z,1.10
2023-02-11T04:08:05.168Z,1.10
2023-02-11T04:10:33.247Z,1.10
2023-02-11T04:13:01.226Z,1.10
2023-02-11T04:15:29.168Z,1.10
2023-02-11T04:17:56.973Z,1.04
2023-02-11T04:20:24.906Z,1.00
2023-02-11T04:22:52.790Z,1.00
2023-02-11T04:25:20.951Z,0.90
2023-02-11T04:27:48.712Z,0.90
2023-02-11T04:30:16.678Z,0.90
2023-02-11T04:32:44.647Z,0.82
2023-02-11T04:35:12.507Z,0.82
2023-02-11T04:37:40.487Z,0.80
2023-02-11T04:40:09.889Z,0.80
2023-02-11T04:42:37.840Z,0.80
2023-02-11T04:45:07.878Z,0.80
2023-02-11T04:47:36.458Z,0.80
2023-02-11T04:50:05.006Z,0.80
2023-02-11T04:52:33.025Z,0.80
2023-02-11T04:55:01.090Z,0.80
2023-02-11T04:57:28.806Z,0.76
2023-02-11T04:59:56.633Z,0.70
2023-02-11T05:02:24.554Z,0.70
2023-02-11T05:04:52.503Z,0.70
2023-02-11T05:07:20.408Z,0.66
2023-02-11T05:09:48.226Z,0.68
2023-02-11T05:12:16.157Z,0.60
2023-02-11T05:14:44.142Z,0.60
2023-02-11T05:17:12.112Z,0.66
2023-02-11T05:19:40.246Z,0.62
2023-02-11T05:22:08.424Z,0.60
2023-02-11T05:24:36.422Z,0.60
2023-02-11T05:27:04.563Z,0.60
2023-02-11T05:29:32.514Z,0.60
2023-02-11T05:32:00.331Z,0.60
2023-02-11T05:34:28.361Z,0.60
2023-02-11T05:36:56.413Z,0.60
2023-02-11T05:39:24.318Z,0.60
